aviador You're here:

KFLG Decoded Metar

FLAGSTAFF in AZ, USA
Report Time2018-05-27 00:57:00
UTC Time2018-05-27 01:18:44
Flight Rules vfr VFR
Wind200° at 20 Gusting to 28 kt
W.Decomp.*RWY 21: 18.3 kt HW 8.1 kt LCW
W.Rank200° ranks 6
Current wind is above 200° avg. (10.3)
Visibility9999 m
Phenomena:N/A
Clouds:N/A
Expected CloudBase > 9,200 ft AGL from Temp-Dew spread
CeilingNone
Temp17°C (ISA +16)
Dew Point-6°C (20% RH)
AAT7.1°C
QNH1015 hPa
Density Alt8,822 ft
Elevation7,001 ft
Report Wrong Elevation
Raw Report
KFLG 270057Z 20020G28KT 10SM CLR 17/M06 A2997 RMK AO2 PK WND
21033/0020 SLP081 T01671056=

Extra information for KFLG:More info

Metar Taf Metar & Taf Last 4 Metars F.Rules Stats Wind Profile Meteogram Temp Stats Airport Information Weather charts Add Link Nearby VenuesMetar ALERT Operation Metar Decoded Social comments

AIRNAV info for KFLG